Time;durP1;ratioP1;P1;durP2;ratioP2;P2;SDS_P1;SDS_P2;PMS_P1;PMS_P2;Temp;Humidity;BMP_temperature;BMP_pressure;BME280_temperature;BME280_humidity;BME280_pressure;Samples;Min_cycle;Max_cycle;Signal;HPM_P1;HPM_P2
2021/05/17 00:00:41;;;;;;;14.23;9.63;;;;;;;9.92;100.00;94491.59;5072123;28;21839;-75
2021/05/17 00:03:09;;;;;;;12.40;9.32;;;;;;;10.01;100.00;94494.63;5055793;28;20139;-76
2021/05/17 00:05:36;;;;;;;13.60;9.05;;;;;;;10.12;100.00;94502.38;5075507;28;20048;-76
2021/05/17 00:08:05;;;;;;;11.73;9.63;;;;;;;10.21;98.55;94494.16;5075546;28;20040;-76
2021/05/17 00:10:33;;;;;;;11.38;8.93;;;;;;;10.27;98.60;94495.84;5079484;28;20453;-76
2021/05/17 00:13:00;;;;;;;12.52;8.93;;;;;;;10.22;97.61;94495.75;5076347;28;20042;-75
2021/05/17 00:15:27;;;;;;;21.13;10.65;;;;;;;10.20;97.23;94482.97;5070553;28;20033;-76
2021/05/17 00:17:57;;;;;;;13.80;10.65;;;;;;;10.24;96.87;94488.50;5080307;28;20109;-76
2021/05/17 00:20:25;;;;;;;11.75;10.25;;;;;;;10.20;98.04;94492.59;5072340;28;20043;-75
2021/05/17 00:22:53;;;;;;;15.73;10.65;;;;;;;10.13;98.35;94485.72;5057183;28;20036;-75
2021/05/17 00:25:27;;;;;;;13.25;9.93;;;;;;;10.08;99.71;94488.25;5082991;28;20531;-75
2021/05/17 00:27:57;;;;;;;10.45;9.35;;;;;;;10.06;98.45;94487.69;5070436;28;20036;-75
2021/05/17 00:30:27;;;;;;;12.80;11.45;;;;;;;10.15;98.93;94493.28;5058830;28;20067;-75
2021/05/17 00:32:55;;;;;;;11.95;9.65;;;;;;;10.08;98.95;94496.06;5073832;28;20489;-75
2021/05/17 00:35:23;;;;;;;12.38;10.00;;;;;;;10.06;98.84;94498.09;5074827;28;20040;-75
2021/05/17 00:37:49;;;;;;;14.27;10.45;;;;;;;9.91;99.09;94500.44;5073087;28;20039;-74
2021/05/17 00:40:18;;;;;;;16.52;11.02;;;;;;;9.77;99.70;94498.13;5072432;28;20041;-75
2021/05/17 00:42:46;;;;;;;13.27;10.50;;;;;;;9.74;100.00;94501.22;5074292;28;20919;-75
2021/05/17 00:45:16;;;;;;;15.77;11.75;;;;;;;9.71;100.00;94501.66;5075892;28;20032;-74
2021/05/17 00:47:46;;;;;;;10.70;9.60;;;;;;;9.81;100.00;94500.28;5075019;28;20041;-75
2021/05/17 00:50:17;;;;;;;12.65;10.20;;;;;;;9.44;100.00;94500.66;5068891;28;20060;-74
2021/05/17 00:52:45;;;;;;;14.02;10.75;;;;;;;9.17;100.00;94508.97;5076432;28;20060;-75
2021/05/17 00:55:13;;;;;;;13.23;10.32;;;;;;;9.19;100.00;94505.13;5078577;28;20044;-75
2021/05/17 00:57:41;;;;;;;24.80;9.32;;;;;;;9.35;100.00;94498.41;5071186;28;20058;-75
2021/05/17 01:00:11;;;;;;;29.73;9.52;;;;;;;9.51;100.00;94493.50;5053714;28;20076;-75
2021/05/17 01:02:46;;;;;;;20.05;8.82;;;;;;;9.34;100.00;94491.63;5070585;28;20051;-76
2021/05/17 01:05:31;;;;;;;63.40;9.32;;;;;;;9.18;100.00;94506.16;5070427;28;20044;-75
2021/05/17 01:08:01;;;;;;;25.30;6.55;;;;;;;8.90;100.00;94499.06;5071542;28;20048;-75
2021/05/17 01:10:30;;;;;;;14.45;6.20;;;;;;;8.95;100.00;94504.38;5069919;28;20094;-75
2021/05/17 01:12:58;;;;;;;7.63;5.60;;;;;;;9.14;100.00;94512.03;5069132;28;20044;-76
2021/05/17 01:15:26;;;;;;;16.42;5.85;;;;;;;9.22;100.00;94509.09;5051173;28;20044;-75
2021/05/17 01:17:55;;;;;;;7.57;4.85;;;;;;;9.32;99.95;94511.84;5047416;28;20474;-76
2021/05/17 01:20:27;;;;;;;10.25;4.72;;;;;;;9.42;99.68;94513.88;5065031;28;20036;-75
2021/05/17 01:25:59;;;;;;;7.80;4.95;;;;;;;9.55;96.28;94512.81;5070303;28;20067;-75
2021/05/17 01:28:30;;;;;;;5.32;4.63;;;;;;;9.60;96.08;94507.72;5066373;28;20048;-76
2021/05/17 01:31:03;;;;;;;6.70;5.32;;;;;;;9.67;94.98;94510.97;5049971;28;20048;-76
2021/05/17 01:33:44;;;;;;;6.30;4.93;;;;;;;9.56;94.97;94493.59;5069944;28;20039;-76
2021/05/17 01:36:14;;;;;;;7.05;5.10;;;;;;;9.68;94.44;94504.72;5049846;28;20060;-76
2021/05/17 01:38:45;;;;;;;8.25;5.22;;;;;;;9.71;93.73;94506.88;5068984;28;20040;-76
2021/05/17 01:41:15;;;;;;;5.63;4.95;;;;;;;9.72;93.30;94498.06;5054296;28;20048;-76
2021/05/17 01:43:45;;;;;;;5.30;4.80;;;;;;;9.82;92.89;94507.06;5050412;28;20535;-75
2021/05/17 01:46:18;;;;;;;10.63;5.95;;;;;;;9.85;91.87;94506.56;5052353;28;20478;-75
2021/05/17 01:48:49;;;;;;;6.18;5.13;;;;;;;9.87;91.59;94504.56;5050588;28;20043;-75
2021/05/17 01:51:18;;;;;;;9.57;5.80;;;;;;;9.90;91.50;94498.88;5048546;28;20123;-75
2021/05/17 01:53:47;;;;;;;14.35;6.50;;;;;;;9.90;92.05;94498.88;5050668;28;20045;-75
2021/05/17 01:56:16;;;;;;;6.18;5.20;;;;;;;9.87;90.88;94494.16;5070365;28;20506;-75
2021/05/17 01:58:43;;;;;;;8.88;6.95;;;;;;;9.79;90.94;94487.50;5047946;28;20114;-75
2021/05/17 02:01:13;;;;;;;11.82;5.93;;;;;;;9.77;90.74;94490.31;5052743;28;20051;-74
2021/05/17 02:03:46;;;;;;;10.38;8.13;;;;;;;9.77;91.35;94485.13;5072375;28;20104;-74
2021/05/17 02:06:15;;;;;;;13.27;7.25;;;;;;;9.73;91.06;94489.22;5054920;28;20076;-75
2021/05/17 02:08:47;;;;;;;11.27;7.35;;;;;;;9.68;91.56;94486.53;5063235;28;20129;-75
2021/05/17 02:11:20;;;;;;;15.50;7.95;;;;;;;9.65;91.27;94481.81;5059381;28;20587;-75
2021/05/17 02:14:07;;;;;;;9.40;7.93;;;;;;;9.57;92.12;94474.38;5062036;28;20036;-74
2021/05/17 02:16:34;;;;;;;15.68;8.32;;;;;;;9.45;92.91;94466.63;5063509;28;20043;-73
2021/05/17 02:19:02;;;;;;;10.13;8.25;;;;;;;9.33;93.69;94458.88;5081912;28;20094;-75
2021/05/17 02:21:29;;;;;;;15.15;10.18;;;;;;;9.25;93.24;94461.81;5083602;28;20498;-75
2021/05/17 02:23:56;;;;;;;14.07;7.85;;;;;;;9.07;93.16;94470.56;5079239;28;20453;-74
2021/05/17 02:26:23;;;;;;;12.02;8.85;;;;;;;8.89;93.75;94468.91;5062201;28;20040;-74
2021/05/17 02:28:55;;;;;;;20.35;10.82;;;;;;;8.84;94.09;94475.81;5065232;28;20068;-74
2021/05/17 02:31:24;;;;;;;14.43;10.02;;;;;;;8.59;94.91;94449.09;5067009;28;20048;-74
2021/05/17 02:33:51;;;;;;;14.48;10.77;;;;;;;8.66;95.44;94468.94;5081154;28;20115;-73
2021/05/17 02:36:18;;;;;;;15.27;10.88;;;;;;;8.59;95.40;94474.28;5055619;28;20051;-74
2021/05/17 02:38:45;;;;;;;13.27;9.82;;;;;;;8.59;96.27;94479.47;5053378;28;20048;-73
2021/05/17 02:41:16;;;;;;;18.88;12.82;;;;;;;8.42;100.00;94489.72;5075156;28;20058;-73
2021/05/17 02:43:44;;;;;;;20.02;13.02;;;;;;;8.17;100.00;94485.50;5063993;28;20438;-73
2021/05/17 02:46:16;;;;;;;19.30;13.45;;;;;;;8.23;100.00;94492.41;5060414;28;20048;-74
2021/05/17 02:48:49;;;;;;;23.05;13.48;;;;;;;8.01;100.00;94488.75;5073850;28;20118;-74
2021/05/17 02:51:16;;;;;;;19.75;12.20;;;;;;;7.92;100.00;94474.53;5080738;28;20037;-75
2021/05/17 02:53:49;;;;;;;15.25;10.35;;;;;;;7.99;100.00;94488.97;5081346;28;20047;-74
2021/05/17 02:56:25;;;;;;;26.48;8.95;;;;;;;7.57;100.00;94477.81;5062371;28;20123;-75
2021/05/17 02:59:03;;;;;;;33.60;8.93;;;;;;;7.74;100.00;94489.16;5056174;28;20047;-75
2021/05/17 03:01:41;;;;;;;12.82;7.97;;;;;;;7.82;100.00;94488.81;5078728;28;20082;-74
2021/05/17 03:04:18;;;;;;;24.35;8.95;;;;;;;7.79;100.00;94486.66;5057852;28;20122;-74
2021/05/17 03:06:58;;;;;;;25.10;7.63;;;;;;;7.88;100.00;94489.72;5076611;28;20398;-75
2021/05/17 03:09:26;;;;;;;27.48;7.78;;;;;;;7.91;100.00;94496.28;5062813;28;20048;-74
2021/05/17 03:11:59;;;;;;;10.85;7.25;;;;;;;7.87;100.00;94502.91;5059458;28;20506;-74
2021/05/17 03:14:30;;;;;;;12.65;7.93;;;;;;;7.82;100.00;94485.44;5059833;28;20052;-74
2021/05/17 03:17:09;;;;;;;9.65;6.95;;;;;;;7.91;100.00;94504.06;5067862;28;20471;-74
2021/05/17 03:19:38;;;;;;;14.02;7.57;;;;;;;7.90;100.00;94512.84;5062649;28;20085;-74
2021/05/17 03:22:06;;;;;;;10.68;7.10;;;;;;;7.83;100.00;94498.19;5081738;28;20040;-74
2021/05/17 03:24:35;;;;;;;10.43;7.35;;;;;;;7.87;100.00;94514.09;5076959;28;20039;-74
2021/05/17 03:27:18;;;;;;;8.32;6.75;;;;;;;7.99;100.00;94514.88;5080749;28;20398;-75
2021/05/17 03:29:45;;;;;;;8.38;6.85;;;;;;;7.97;100.00;94508.34;5078616;28;20043;-74
2021/05/17 03:32:12;;;;;;;11.13;7.55;;;;;;;8.05;100.00;94510.66;5077779;28;20110;-74
2021/05/17 03:34:39;;;;;;;8.65;6.68;;;;;;;8.15;100.00;94517.88;5073176;28;20032;-74
2021/05/17 03:37:06;;;;;;;9.38;7.57;;;;;;;8.20;100.00;94508.41;5082711;28;20051;-74
2021/05/17 03:39:33;;;;;;;8.05;6.28;;;;;;;8.31;100.00;94524.22;5057608;28;20139;-74
2021/05/17 03:42:00;;;;;;;10.27;5.97;;;;;;;8.35;100.00;94520.94;5079578;28;20032;-74
2021/05/17 03:44:27;;;;;;;12.15;6.78;;;;;;;8.48;100.00;94534.75;5078145;28;20127;-74
2021/05/17 03:46:54;;;;;;;13.70;7.75;;;;;;;8.43;100.00;94532.84;5074110;28;20410;-75
2021/05/17 03:49:21;;;;;;;9.73;7.65;;;;;;;8.54;100.00;94552.81;5082743;28;20094;-75
2021/05/17 03:51:48;;;;;;;9.23;6.63;;;;;;;8.60;100.00;94554.50;5074663;28;20521;-74
2021/05/17 03:54:15;;;;;;;9.07;7.00;;;;;;;8.60;100.00;94558.91;5072809;28;20498;-73
2021/05/17 03:56:42;;;;;;;8.48;6.55;;;;;;;8.41;100.00;94542.63;5076470;28;20123;-74
2021/05/17 03:59:09;;;;;;;8.68;7.10;;;;;;;8.50;100.00;94533.53;5078580;28;20036;-74
2021/05/17 04:01:36;;;;;;;11.70;7.80;;;;;;;8.59;100.00;94537.38;5078096;28;20048;-74
2021/05/17 04:04:03;;;;;;;10.40;7.82;;;;;;;8.69;100.00;94541.19;5072176;28;20040;-74
2021/05/17 04:14:47;;;;;;;12.23;9.00;;;;;;;9.03;100.00;94541.41;5015215;28;20116;-74
2021/05/17 04:17:14;;;;;;;10.02;8.60;;;;;;;9.21;100.00;94543.88;5038228;28;20050;-74
2021/05/17 04:19:40;;;;;;;15.50;10.32;;;;;;;9.33;100.00;94534.25;5079832;28;20230;-74
2021/05/17 04:22:07;;;;;;;11.60;8.02;;;;;;;9.27;100.00;94531.75;5079535;28;20043;-74
2021/05/17 04:24:34;;;;;;;11.82;8.93;;;;;;;9.34;100.00;94538.41;5072312;28;20051;-73
2021/05/17 04:27:01;;;;;;;15.18;9.27;;;;;;;9.41;100.00;94534.91;5068694;28;20045;-74
2021/05/17 04:29:29;;;;;;;13.00;9.88;;;;;;;9.50;100.00;94536.13;5080354;28;20052;-74
2021/05/17 04:31:56;;;;;;;11.52;9.02;;;;;;;9.43;100.00;94506.88;5076221;28;20085;-73
2021/05/17 04:34:22;;;;;;;11.80;9.80;;;;;;;9.54;100.00;94522.44;5076783;28;20120;-73
2021/05/17 04:36:49;;;;;;;12.90;10.02;;;;;;;9.65;100.00;94523.41;5075201;28;20041;-73
2021/05/17 04:39:16;;;;;;;16.98;12.13;;;;;;;9.72;100.00;94520.66;5083381;28;20043;-73
2021/05/17 04:41:43;;;;;;;14.25;11.85;;;;;;;9.79;100.00;94512.72;5073158;28;20036;-73
2021/05/17 04:44:11;;;;;;;15.05;12.75;;;;;;;9.90;100.00;94514.47;5059184;28;20044;-74
2021/05/17 04:46:38;;;;;;;19.75;14.68;;;;;;;9.88;100.00;94512.09;5078108;28;20163;-73
2021/05/17 04:49:04;;;;;;;20.00;14.90;;;;;;;10.01;100.00;94518.84;5077690;28;20115;-73
2021/05/17 04:51:31;;;;;;;26.13;16.42;;;;;;;10.07;100.00;94510.09;5067931;28;20044;-74
2021/05/17 04:53:58;;;;;;;24.10;16.20;;;;;;;10.18;100.00;94505.84;5077565;28;20046;-74
2021/05/17 04:56:25;;;;;;;22.63;15.73;;;;;;;10.24;100.00;94509.31;5074619;28;20080;-75
2021/05/17 04:58:52;;;;;;;22.42;16.92;;;;;;;10.32;100.00;94508.97;5079142;28;21890;-74
2021/05/17 05:01:18;;;;;;;24.45;17.17;;;;;;;10.31;100.00;94502.16;5075781;28;20044;-74
2021/05/17 05:03:45;;;;;;;26.10;18.50;;;;;;;10.40;100.00;94498.13;5084999;28;20067;-74
2021/05/17 05:06:12;;;;;;;26.85;17.38;;;;;;;10.56;100.00;94495.78;5069652;28;20046;-75
2021/05/17 05:08:39;;;;;;;23.90;17.15;;;;;;;10.71;100.00;94493.38;5077094;28;20417;-75
2021/05/17 05:11:06;;;;;;;38.08;22.02;;;;;;;10.81;100.00;94485.69;5078095;28;20441;-75
2021/05/17 05:13:32;;;;;;;37.53;23.70;;;;;;;10.87;100.00;94484.72;5075109;28;20447;-74
2021/05/17 05:15:59;;;;;;;46.25;23.38;;;;;;;10.87;100.00;94482.13;5071651;28;20044;-75
2021/05/17 05:18:26;;;;;;;61.30;21.33;;;;;;;11.06;100.00;94505.31;5074233;28;20044;-74
2021/05/17 05:20:53;;;;;;;32.42;21.00;;;;;;;11.21;100.00;94508.09;5078978;28;20123;-75
2021/05/17 05:23:21;;;;;;;33.38;21.70;;;;;;;11.25;100.00;94509.22;5077949;28;20448;-75
2021/05/17 05:28:21;;;;;;;34.58;21.00;;;;;;;11.49;100.00;94519.38;5072532;28;20032;-76
2021/05/17 05:33:15;;;;;;;29.83;20.67;;;;;;;11.63;100.00;94514.56;5068049;28;20643;-75
2021/05/17 05:35:43;;;;;;;30.42;21.00;;;;;;;11.61;100.00;94517.44;5070724;28;20055;-75
2021/05/17 05:38:10;;;;;;;32.70;21.90;;;;;;;11.65;100.00;94513.31;5072709;28;20468;-75
2021/05/17 05:40:37;;;;;;;28.90;19.60;;;;;;;11.69;100.00;94523.25;5082756;28;20041;-75
2021/05/17 05:43:04;;;;;;;25.77;16.67;;;;;;;11.71;100.00;94527.19;5076256;28;20051;-74
2021/05/17 05:45:42;;;;;;;22.08;17.42;;;;;;;11.63;100.00;94525.81;5078862;28;20040;-74
2021/05/17 05:48:08;;;;;;;31.08;21.70;;;;;;;11.69;100.00;94539.69;5080446;28;20040;-74
2021/05/17 05:50:37;;;;;;;35.90;27.00;;;;;;;11.61;100.00;94533.09;5084454;28;20032;-75
2021/05/17 05:53:04;;;;;;;37.40;26.63;;;;;;;11.58;100.00;94522.34;5082800;28;20036;-75
2021/05/17 05:55:32;;;;;;;43.58;25.33;;;;;;;11.56;100.00;94524.41;5078494;28;20040;-74
2021/05/17 05:57:59;;;;;;;34.78;20.58;;;;;;;11.58;100.00;94523.13;5073328;28;20630;-74
2021/05/17 06:00:30;;;;;;;30.45;22.20;;;;;;;11.55;100.00;94512.41;5075338;28;20055;-74
2021/05/17 06:02:59;;;;;;;31.45;22.88;;;;;;;11.60;100.00;94500.19;5080807;28;20416;-75
2021/05/17 06:05:26;;;;;;;32.15;21.40;;;;;;;11.77;100.00;94509.75;5081764;28;20111;-74
2021/05/17 06:07:53;;;;;;;28.00;20.13;;;;;;;11.84;100.00;94494.69;5075627;28;20037;-74
2021/05/17 06:10:20;;;;;;;27.15;20.38;;;;;;;11.99;100.00;94489.66;5077785;28;20051;-74
2021/05/17 06:12:48;;;;;;;29.05;20.80;;;;;;;12.09;100.00;94478.50;5076985;28;20070;-74
2021/05/17 06:15:18;;;;;;;31.58;19.85;;;;;;;12.09;100.00;94464.69;5075009;28;20046;-73
2021/05/17 06:17:46;;;;;;;28.08;20.98;;;;;;;12.28;100.00;94471.09;5062122;28;20055;-74
2021/05/17 06:20:14;;;;;;;25.55;19.75;;;;;;;12.51;100.00;94471.75;5062579;28;20509;-74
2021/05/17 06:22:41;;;;;;;31.20;22.42;;;;;;;12.72;100.00;94483.91;5075754;28;20041;-74
2021/05/17 06:25:10;;;;;;;27.52;22.27;;;;;;;12.77;100.00;94481.34;5059130;28;20045;-74
2021/05/17 06:27:39;;;;;;;30.70;21.17;;;;;;;12.84;100.00;94480.31;5076603;28;20119;-73
2021/05/17 06:30:09;;;;;;;32.28;20.85;;;;;;;12.88;100.00;94487.41;5084788;28;20040;-73
2021/05/17 06:32:38;;;;;;;33.38;22.65;;;;;;;12.85;100.00;94476.69;5076409;28;20046;-74
2021/05/17 06:35:07;;;;;;;29.48;22.98;;;;;;;12.82;100.00;94483.97;5080368;28;20520;-73
2021/05/17 06:37:34;;;;;;;30.45;22.52;;;;;;;12.98;100.00;94477.00;5077547;28;20036;-73
2021/05/17 06:40:02;;;;;;;28.38;21.38;;;;;;;13.25;100.00;94491.75;5077930;28;20127;-73
2021/05/17 06:42:29;;;;;;;25.85;20.05;;;;;;;13.39;98.97;94497.34;5077667;28;20114;-74
2021/05/17 06:44:56;;;;;;;25.60;19.83;;;;;;;13.61;98.22;94493.75;5078147;28;20052;-74
2021/05/17 06:47:23;;;;;;;23.42;17.45;;;;;;;13.83;95.69;94481.25;5078871;28;20123;-74
2021/05/17 06:49:50;;;;;;;26.38;18.88;;;;;;;13.95;94.12;94471.31;5062009;28;20040;-74
2021/05/17 06:52:22;;;;;;;21.42;16.70;;;;;;;14.03;94.37;94466.63;5074860;28;20399;-74
2021/05/17 06:54:50;;;;;;;20.90;15.98;;;;;;;14.13;92.03;94458.75;5059526;28;20119;-75
2021/05/17 06:57:26;;;;;;;23.00;17.23;;;;;;;14.19;92.37;94462.94;5078093;28;20465;-73
2021/05/17 06:59:59;;;;;;;21.17;17.67;;;;;;;14.05;93.58;94456.66;5075284;28;20059;-73
2021/05/17 07:02:27;;;;;;;22.65;19.08;;;;;;;14.21;94.83;94442.53;5076540;28;20123;-72
2021/05/17 07:04:57;;;;;;;21.75;17.13;;;;;;;14.36;94.50;94451.41;5045709;28;20040;-73
2021/05/17 07:13:04;;;;;;;22.05;16.77;;;;;;;14.97;93.90;94461.03;5083224;28;20059;-71
2021/05/17 07:15:31;;;;;;;18.42;14.32;;;;;;;15.12;91.03;94452.31;5074322;28;20068;-73
2021/05/17 07:17:58;;;;;;;17.27;14.00;;;;;;;15.32;88.95;94459.31;5081909;28;20043;-73
2021/05/17 07:20:32;;;;;;;22.40;14.18;;;;;;;15.55;87.46;94465.78;5077411;28;20055;-73
2021/05/17 07:25:45;;;;;;;19.65;15.27;;;;;;;15.67;87.59;94466.25;5076828;28;20040;-73
2021/05/17 07:28:12;;;;;;;21.58;16.65;;;;;;;15.71;89.42;94454.13;5076375;28;20048;-72
2021/05/17 07:30:39;;;;;;;24.58;16.15;;;;;;;15.89;90.79;94455.34;5079904;28;20135;-72
2021/05/17 07:33:06;;;;;;;22.42;15.65;;;;;;;16.04;87.02;94462.34;5075779;28;20513;-72
2021/05/17 07:35:32;;;;;;;17.67;15.77;;;;;;;15.99;87.09;94454.50;5072567;28;20128;-72
2021/05/17 07:37:59;;;;;;;26.23;16.52;;;;;;;16.12;86.06;94474.13;5082184;28;20044;-72
2021/05/17 07:40:27;;;;;;;22.92;16.83;;;;;;;16.07;86.12;94461.81;5082590;28;20043;-72
2021/05/17 07:42:54;;;;;;;20.20;15.70;;;;;;;15.98;86.95;94458.19;5077385;28;20448;-72
2021/05/17 07:45:41;;;;;;;22.00;14.85;;;;;;;15.84;87.11;94443.03;5063683;28;20060;-72
2021/05/17 07:48:10;;;;;;;17.90;14.85;;;;;;;15.79;87.44;94440.47;5073312;28;20044;-72
2021/05/17 07:50:37;;;;;;;17.55;14.75;;;;;;;15.94;86.30;94441.41;5071651;28;20480;-72
2021/05/17 07:53:04;;;;;;;22.55;16.60;;;;;;;15.93;87.77;94439.84;5073436;28;20041;-73
2021/05/17 07:55:31;;;;;;;21.52;16.83;;;;;;;15.60;87.98;94434.25;5067530;28;20473;-71
2021/05/17 07:57:58;;;;;;;19.67;16.85;;;;;;;15.59;88.76;94414.28;5072880;28;20580;-72
2021/05/17 08:00:25;;;;;;;22.27;15.27;;;;;;;15.56;87.94;94414.88;5072889;28;20135;-72
2021/05/17 08:02:52;;;;;;;18.92;15.60;;;;;;;15.97;89.37;94414.59;5072748;28;20040;-72
2021/05/17 08:05:19;;;;;;;22.67;16.95;;;;;;;16.06;88.33;94412.94;5078123;28;20064;-72
2021/05/17 08:07:46;;;;;;;21.00;17.08;;;;;;;15.77;90.17;94421.59;5073805;28;20513;-72
2021/05/17 08:10:13;;;;;;;21.80;18.60;;;;;;;15.53;91.91;94410.94;5041892;28;20132;-71
2021/05/17 08:12:40;;;;;;;23.63;18.25;;;;;;;15.32;92.79;94405.00;5079763;28;20068;-72
2021/05/17 08:15:13;;;;;;;23.63;19.30;;;;;;;15.49;93.24;94421.19;5077726;28;20048;-72
2021/05/17 08:17:40;;;;;;;26.67;20.35;;;;;;;15.32;91.04;94425.22;5075782;28;20032;-72
2021/05/17 08:20:08;;;;;;;21.25;16.13;;;;;;;15.66;88.06;94425.28;5060915;28;20127;-71
2021/05/17 08:22:35;;;;;;;20.75;15.90;;;;;;;15.97;86.75;94432.97;5078460;28;20422;-72
2021/05/17 08:25:06;;;;;;;19.90;14.60;;;;;;;16.19;85.52;94433.34;5070388;28;20076;-73
2021/05/17 08:27:35;;;;;;;18.13;15.75;;;;;;;16.35;87.74;94427.94;5076647;28;20123;-73
2021/05/17 08:30:04;;;;;;;21.58;16.45;;;;;;;16.49;86.12;94405.19;5061892;28;20097;-73
2021/05/17 08:32:31;;;;;;;29.52;18.77;;;;;;;16.74;85.66;94400.75;5076635;28;20036;-73
2021/05/17 08:34:58;;;;;;;26.95;18.17;;;;;;;16.97;84.78;94426.28;5075254;28;20048;-72
2021/05/17 08:37:24;;;;;;;23.40;18.05;;;;;;;16.72;84.61;94426.53;5058536;28;20058;-72
2021/05/17 08:39:51;;;;;;;29.08;19.10;;;;;;;16.63;85.26;94435.03;5078743;28;20054;-72
2021/05/17 08:42:30;;;;;;;23.95;17.13;;;;;;;16.56;84.86;94421.44;5058130;28;20499;-72
2021/05/17 08:44:56;;;;;;;21.90;16.65;;;;;;;16.51;85.31;94434.66;5075094;28;20412;-73
2021/05/17 08:47:24;;;;;;;17.50;15.57;;;;;;;16.46;85.35;94437.31;5074720;28;20394;-72
2021/05/17 08:49:50;;;;;;;22.67;16.00;;;;;;;16.47;85.09;94428.34;5069621;28;20421;-72
2021/05/17 08:52:18;;;;;;;24.15;17.95;;;;;;;16.50;85.86;94437.56;5075526;28;20464;-72
2021/05/17 08:54:45;;;;;;;20.85;16.33;;;;;;;16.40;87.68;94433.16;5074927;28;20033;-71
2021/05/17 08:57:15;;;;;;;18.17;14.82;;;;;;;16.40;85.73;94438.41;5076223;28;20135;-72
2021/05/17 08:59:42;;;;;;;16.20;14.07;;;;;;;16.28;86.11;94430.09;5070462;28;20072;-71
2021/05/17 09:02:09;;;;;;;29.13;16.27;;;;;;;16.29;85.75;94426.44;5060705;28;20127;-72
2021/05/17 09:04:36;;;;;;;22.20;15.73;;;;;;;16.28;86.90;94427.47;5080723;28;20119;-73
2021/05/17 09:07:03;;;;;;;19.63;15.82;;;;;;;16.43;87.60;94445.75;5059977;28;20028;-74
2021/05/17 09:09:40;;;;;;;27.17;16.77;;;;;;;16.55;88.19;94435.66;5067664;28;20406;-72
2021/05/17 09:12:11;;;;;;;20.83;15.25;;;;;;;16.69;89.36;94429.72;5072532;28;20036;-72
2021/05/17 09:14:39;;;;;;;17.73;14.43;;;;;;;16.85;86.85;94439.06;5071581;28;20036;-73
2021/05/17 09:17:10;;;;;;;17.08;13.20;;;;;;;16.76;84.52;94445.97;5069167;28;20028;-73
2021/05/17 09:19:41;;;;;;;16.33;14.13;;;;;;;16.65;83.90;94449.75;5070360;28;20115;-72
2021/05/17 09:22:13;;;;;;;15.65;12.38;;;;;;;16.59;83.37;94452.44;5054987;28;20448;-73
2021/05/17 09:24:48;;;;;;;20.00;14.82;;;;;;;16.55;83.17;94448.03;5072179;28;20070;-72
2021/05/17 09:27:17;;;;;;;19.95;14.18;;;;;;;16.61;84.67;94445.03;5077108;28;20072;-71
2021/05/17 09:29:57;;;;;;;17.75;14.48;;;;;;;16.72;85.48;94423.91;5077794;28;20109;-72
2021/05/17 09:32:29;;;;;;;18.15;12.88;;;;;;;16.96;84.63;94429.19;5074358;28;20051;-73
2021/05/17 09:35:00;;;;;;;25.00;13.95;;;;;;;17.23;85.28;94426.00;5074995;28;20045;-72
2021/05/17 09:37:40;;;;;;;18.08;12.98;;;;;;;17.39;85.57;94421.31;5079467;28;20037;-74
2021/05/17 09:40:17;;;;;;;20.55;14.18;;;;;;;17.43;81.79;94416.28;5072812;28;20072;-75
2021/05/17 09:42:44;;;;;;;18.80;12.63;;;;;;;17.54;82.28;94428.25;5069114;28;20462;-75
2021/05/17 09:45:12;;;;;;;17.30;14.07;;;;;;;17.51;84.12;94413.00;5069014;28;20059;-76
2021/05/17 09:47:42;;;;;;;19.70;15.45;;;;;;;17.51;86.34;94434.84;5055455;28;20540;-75
2021/05/17 09:50:09;;;;;;;22.67;12.05;;;;;;;17.53;83.05;94419.56;5075739;28;20130;-75
2021/05/17 09:52:37;;;;;;;13.07;10.10;;;;;;;17.66;79.05;94431.22;5053062;28;20040;-75
2021/05/17 09:55:07;;;;;;;16.75;10.27;;;;;;;17.69;79.57;94420.13;5071097;28;20071;-75
2021/05/17 09:57:41;;;;;;;20.00;12.10;;;;;;;17.77;80.91;94421.31;5057054;28;20068;-76
2021/05/17 10:00:09;;;;;;;16.38;11.27;;;;;;;17.61;81.35;94420.78;5071292;28;20056;-76
2021/05/17 10:02:48;;;;;;;12.98;10.52;;;;;;;17.55;82.53;94429.81;5073045;28;20041;-75
2021/05/17 10:05:17;;;;;;;14.05;10.30;;;;;;;17.53;82.77;94410.88;5071634;28;20051;-75
2021/05/17 10:07:46;;;;;;;11.82;9.00;;;;;;;18.05;85.53;94406.44;5074979;28;20041;-75
2021/05/17 10:10:34;;;;;;;12.80;9.48;;;;;;;18.40;79.67;94406.94;5072512;28;20059;-77
2021/05/17 10:13:02;;;;;;;20.05;11.30;;;;;;;18.61;81.30;94396.03;5068943;28;20051;-76
2021/05/17 10:15:33;;;;;;;13.23;10.13;;;;;;;18.98;79.71;94394.28;5060331;28;20058;-75
2021/05/17 10:18:15;;;;;;;9.13;7.18;;;;;;;19.43;72.51;94391.81;5072655;28;20071;-74
2021/05/17 10:20:45;;;;;;;13.18;8.57;;;;;;;19.79;71.81;94385.75;5072502;28;20060;-73
2021/05/17 10:23:13;;;;;;;10.18;7.38;;;;;;;19.81;71.58;94380.97;5069329;28;20117;-73
2021/05/17 10:25:45;;;;;;;11.95;7.80;;;;;;;19.75;69.21;94390.06;5078783;28;20071;-73
2021/05/17 10:28:17;;;;;;;11.95;7.47;;;;;;;19.83;67.15;94392.00;5071858;28;20045;-73
2021/05/17 10:30:45;;;;;;;13.60;7.97;;;;;;;19.57;69.70;94383.84;5067822;28;20114;-73
2021/05/17 10:33:18;;;;;;;11.80;7.72;;;;;;;19.38;71.19;94391.91;5060156;28;20031;-73
2021/05/17 10:35:45;;;;;;;14.57;7.50;;;;;;;19.10;70.26;94397.22;5075226;28;20048;-72
2021/05/17 10:41:01;;;;;;;12.95;9.57;;;;;;;18.64;73.32;94400.72;5070320;28;20071;-73
2021/05/17 10:44:01;;;;;;;16.67;10.30;;;;;;;18.72;75.47;94392.13;5066537;28;20037;-73
2021/05/17 10:46:38;;;;;;;15.82;12.05;;;;;;;18.53;72.48;94406.19;5073318;28;20567;-73
2021/05/17 10:49:30;;;;;;;16.50;9.18;;;;;;;18.26;73.83;94392.94;5055221;28;20041;-73
2021/05/17 10:52:17;;;;;;;14.07;9.45;;;;;;;18.24;75.90;94393.25;5075758;28;20132;-74
2021/05/17 10:54:48;;;;;;;14.50;10.85;;;;;;;18.24;77.60;94387.16;5072866;28;20059;-74
2021/05/17 10:57:23;;;;;;;17.10;12.93;;;;;;;18.24;82.05;94382.69;5071853;28;20040;-74
2021/05/17 11:02:43;;;;;;;13.80;10.95;;;;;;;18.07;78.59;94383.22;5072462;28;20414;-74
2021/05/17 11:05:10;;;;;;;13.00;9.90;;;;;;;18.04;79.38;94399.63;5080824;28;20399;-74
2021/05/17 11:07:53;;;;;;;16.83;9.88;;;;;;;18.01;81.36;94392.28;5078680;28;20421;-74
2021/05/17 11:10:33;;;;;;;10.88;8.68;;;;;;;17.93;81.45;94387.66;5077906;28;20043;-73
2021/05/17 11:13:03;;;;;;;10.02;7.55;;;;;;;17.89;80.79;94384.03;5074749;28;20036;-73
2021/05/17 11:15:46;;;;;;;11.20;8.25;;;;;;;17.78;83.19;94380.75;5068809;28;20562;-73
2021/05/17 11:18:13;;;;;;;10.70;6.82;;;;;;;17.76;84.65;94373.13;5072890;28;20033;-74
2021/05/17 11:23:43;;;;;;;7.57;5.18;;;;;;;17.90;85.11;94388.25;5069880;28;20130;-74
2021/05/17 11:26:16;;;;;;;13.52;6.05;;;;;;;17.82;83.38;94383.59;5016900;28;20041;-74
2021/05/17 11:28:42;;;;;;;8.63;4.95;;;;;;;17.71;86.01;94385.59;5049096;28;20531;-76
2021/05/17 11:31:18;;;;;;;7.63;4.03;;;;;;;17.54;83.51;94376.38;5067554;28;20044;-76
2021/05/17 11:33:52;;;;;;;4.88;3.97;;;;;;;17.49;84.86;94380.94;5061846;28;20042;-76
2021/05/17 11:36:21;;;;;;;6.15;3.00;;;;;;;17.33;84.90;94375.84;5047328;28;20037;-77
2021/05/17 11:39:22;;;;;;;7.72;4.50;;;;;;;17.33;85.72;94380.34;5066109;28;20137;-77
2021/05/17 11:41:59;;;;;;;3.10;2.17;;;;;;;17.20;84.25;94384.47;5069807;28;20032;-77
2021/05/17 11:45:28;;;;;;;12.80;5.25;;;;;;;17.18;83.75;94390.00;5067513;28;20045;-76
2021/05/17 11:47:34;;;;;;;3.40;1.90;;;;;;;17.26;85.09;94385.97;5057851;28;20055;-76
2021/05/17 11:50:03;;;;;;;3.80;2.15;;;;;;;17.26;81.13;94372.78;5069811;28;20048;-76
2021/05/17 11:52:30;;;;;;;3.30;2.45;;;;;;;17.15;83.09;94368.75;5065890;28;20506;-77
2021/05/17 11:55:00;;;;;;;3.33;2.15;;;;;;;17.23;83.83;94368.09;5052582;28;20047;-77
2021/05/17 11:57:28;;;;;;;3.15;2.10;;;;;;;17.27;83.57;94377.00;5066832;28;20055;-77
2021/05/17 12:00:14;;;;;;;2.60;1.58;;;;;;;17.19;82.66;94381.03;5067317;28;20476;-77
2021/05/17 12:02:48;;;;;;;4.20;1.60;;;;;;;17.22;81.87;94387.59;5064811;28;20041;-77
2021/05/17 12:05:15;;;;;;;2.60;1.45;;;;;;;17.20;81.69;94381.84;5056871;28;20430;-77
2021/05/17 12:07:43;;;;;;;2.72;2.00;;;;;;;17.19;82.20;94380.25;5066747;28;20127;-77